createdAt,value
2018-11-29T00:00:40.203Z,7.79
2018-11-29T00:03:07.646Z,7.83
2018-11-29T00:05:35.115Z,7.78
2018-11-29T00:08:02.563Z,7.77
2018-11-29T00:10:30.020Z,7.74
2018-11-29T00:12:57.482Z,7.60
2018-11-29T00:15:24.916Z,7.84
2018-11-29T00:17:52.411Z,8.02
2018-11-29T00:20:19.828Z,7.93
2018-11-29T00:22:47.265Z,7.92
2018-11-29T00:25:15.610Z,8.00
2018-11-29T00:27:43.132Z,7.99
2018-11-29T00:30:10.591Z,8.11
2018-11-29T00:32:38.050Z,7.81
2018-11-29T00:35:05.457Z,7.92
2018-11-29T00:37:32.921Z,8.08
2018-11-29T00:40:00.360Z,8.08
2018-11-29T00:42:27.798Z,8.03
2018-11-29T00:44:55.250Z,8.18
2018-11-29T00:47:23.885Z,8.10
2018-11-29T00:49:52.430Z,7.94
2018-11-29T00:52:19.984Z,8.09
2018-11-29T00:54:47.435Z,8.23
2018-11-29T00:57:14.898Z,8.23
2018-11-29T00:59:42.357Z,8.41
2018-11-29T01:02:09.823Z,8.26
2018-11-29T01:04:37.278Z,8.34
2018-11-29T01:07:04.743Z,8.33
2018-11-29T01:09:33.359Z,8.47
2018-11-29T01:12:00.786Z,8.37
2018-11-29T01:14:28.206Z,8.31
2018-11-29T01:16:55.679Z,8.27
2018-11-29T01:19:23.159Z,8.29
2018-11-29T01:21:50.604Z,8.34
2018-11-29T01:24:18.019Z,8.46
2018-11-29T01:26:45.464Z,8.35
2018-11-29T01:29:13.982Z,8.34
2018-11-29T01:31:41.443Z,8.27
2018-11-29T01:34:08.934Z,8.29
2018-11-29T01:36:36.380Z,8.18
2018-11-29T01:39:03.814Z,8.28
2018-11-29T01:41:31.258Z,8.23
2018-11-29T01:43:58.699Z,8.33
2018-11-29T01:46:26.900Z,8.40
2018-11-29T01:48:54.337Z,8.43
2018-11-29T01:51:21.773Z,8.28
2018-11-29T01:53:49.210Z,8.35
2018-11-29T01:56:16.642Z,8.48
2018-11-29T01:58:44.091Z,8.34
2018-11-29T02:01:11.506Z,8.40
2018-11-29T02:03:38.949Z,8.44
2018-11-29T02:06:06.369Z,8.56
2018-11-29T02:08:33.816Z,8.48
2018-11-29T02:11:01.260Z,8.43
2018-11-29T02:13:28.691Z,8.57
2018-11-29T02:15:56.140Z,8.47
2018-11-29T02:18:23.595Z,8.73
2018-11-29T02:20:52.060Z,8.63
2018-11-29T02:23:19.560Z,8.62
2018-11-29T02:25:46.996Z,8.57
2018-11-29T02:28:14.431Z,8.61
2018-11-29T02:30:43.050Z,8.58
2018-11-29T02:33:10.494Z,8.53
2018-11-29T02:35:37.942Z,8.59
2018-11-29T02:38:05.377Z,8.61
2018-11-29T02:40:32.818Z,8.61
2018-11-29T02:43:00.253Z,8.59
2018-11-29T02:45:27.667Z,8.51
2018-11-29T02:47:55.113Z,8.40
2018-11-29T02:50:22.548Z,8.62
2018-11-29T02:52:50.024Z,8.46
2018-11-29T02:55:17.468Z,8.50
2018-11-29T02:57:44.908Z,8.41
2018-11-29T03:00:12.350Z,8.46
2018-11-29T03:02:39.796Z,8.52
2018-11-29T03:05:08.460Z,8.52
2018-11-29T03:07:37.625Z,8.47
2018-11-29T03:10:05.192Z,8.53
2018-11-29T03:12:33.854Z,8.50
2018-11-29T03:15:01.277Z,8.58
2018-11-29T03:17:29.942Z,8.65
2018-11-29T03:19:58.639Z,8.63
2018-11-29T03:22:27.272Z,8.52
2018-11-29T03:24:54.728Z,8.66
2018-11-29T03:27:22.179Z,8.62
2018-11-29T03:29:49.618Z,8.60
2018-11-29T03:32:17.243Z,8.49
2018-11-29T03:34:44.577Z,8.56
2018-11-29T03:37:12.014Z,8.68
2018-11-29T03:39:39.497Z,8.71
2018-11-29T03:42:06.965Z,8.74
2018-11-29T03:44:34.401Z,8.82
2018-11-29T03:47:01.879Z,8.86
2018-11-29T03:49:29.327Z,8.67
2018-11-29T03:51:56.775Z,8.66
2018-11-29T03:54:24.230Z,8.65
2018-11-29T03:56:51.689Z,8.82
2018-11-29T03:59:19.131Z,8.89
2018-11-29T04:01:46.837Z,8.78
2018-11-29T04:04:14.284Z,8.66
2018-11-29T04:06:41.716Z,8.85
2018-11-29T04:09:09.131Z,8.70
2018-11-29T04:11:36.570Z,8.65
2018-11-29T04:14:04.001Z,8.67
2018-11-29T04:16:31.440Z,8.40
2018-11-29T04:18:58.853Z,8.54
2018-11-29T04:21:26.305Z,8.48
2018-11-29T04:23:53.751Z,8.60
2018-11-29T04:26:21.211Z,8.61
2018-11-29T04:28:48.649Z,8.66
2018-11-29T04:31:16.085Z,8.56
2018-11-29T04:33:45.233Z,8.45
2018-11-29T04:36:12.694Z,8.45
2018-11-29T04:38:40.161Z,8.45
2018-11-29T04:41:07.597Z,8.33
2018-11-29T04:43:35.065Z,8.60
2018-11-29T04:46:25.120Z,8.68
2018-11-29T04:48:52.628Z,8.65
2018-11-29T04:51:20.058Z,8.66
2018-11-29T04:53:47.521Z,8.53
2018-11-29T04:56:14.963Z,8.65
2018-11-29T04:58:42.399Z,8.43
2018-11-29T05:01:09.816Z,8.62
2018-11-29T05:03:37.247Z,8.64
2018-11-29T05:06:04.687Z,8.49
2018-11-29T05:08:32.143Z,8.47
2018-11-29T05:10:59.594Z,8.62
2018-11-29T05:13:27.049Z,8.39
2018-11-29T05:15:54.506Z,8.57
2018-11-29T05:18:21.930Z,8.46
2018-11-29T05:20:49.361Z,8.51
2018-11-29T05:23:16.776Z,8.53
2018-11-29T05:25:44.227Z,8.59
2018-11-29T05:28:11.658Z,8.65
2018-11-29T05:30:39.099Z,8.61
2018-11-29T05:33:06.538Z,8.44
2018-11-29T05:35:33.953Z,8.46
2018-11-29T05:38:01.408Z,8.44
2018-11-29T05:40:28.847Z,8.67
2018-11-29T05:42:56.305Z,8.55
2018-11-29T05:45:23.744Z,8.57
2018-11-29T05:47:51.159Z,8.47
2018-11-29T05:50:18.599Z,8.63
2018-11-29T05:52:46.032Z,8.65
2018-11-29T05:55:13.515Z,8.57
2018-11-29T05:57:40.955Z,8.55
2018-11-29T06:00:08.388Z,8.73
2018-11-29T06:02:35.879Z,8.62
2018-11-29T06:05:03.337Z,8.77
2018-11-29T06:07:31.979Z,8.76
2018-11-29T06:09:59.411Z,8.94
2018-11-29T06:12:26.829Z,8.69
2018-11-29T06:14:54.286Z,8.77
2018-11-29T06:17:21.724Z,8.86
2018-11-29T06:19:49.193Z,8.86
2018-11-29T06:22:16.664Z,8.87
2018-11-29T06:24:44.138Z,8.70
2018-11-29T06:27:11.561Z,8.85
2018-11-29T06:29:39.977Z,8.80
2018-11-29T06:32:07.472Z,8.69
2018-11-29T06:34:34.930Z,8.56
2018-11-29T06:37:02.365Z,8.78
2018-11-29T06:39:29.777Z,8.90
2018-11-29T06:41:57.212Z,8.83
2018-11-29T06:44:24.645Z,8.90
2018-11-29T06:46:52.097Z,9.02
2018-11-29T06:49:19.550Z,8.66
2018-11-29T06:51:46.989Z,8.59
2018-11-29T06:54:14.437Z,8.63
2018-11-29T06:56:41.885Z,8.45
2018-11-29T06:59:09.330Z,8.66
2018-11-29T07:01:36.763Z,8.68
2018-11-29T07:04:05.194Z,8.54
2018-11-29T07:06:32.754Z,8.65
2018-11-29T07:09:00.183Z,8.81
2018-11-29T07:11:27.626Z,8.82
2018-11-29T07:13:55.089Z,8.73
2018-11-29T07:16:22.527Z,8.83
2018-11-29T07:18:49.953Z,8.83
2018-11-29T07:21:38.898Z,8.94
2018-11-29T07:24:06.343Z,8.84
2018-11-29T07:26:34.469Z,8.78
2018-11-29T07:29:02.027Z,8.72
2018-11-29T07:31:29.459Z,8.85
2018-11-29T07:33:56.897Z,8.87
2018-11-29T07:36:24.324Z,8.78
2018-11-29T07:38:51.774Z,8.93
2018-11-29T07:41:19.226Z,8.97
2018-11-29T07:43:46.643Z,9.08
2018-11-29T07:46:14.074Z,8.91
2018-11-29T07:48:41.509Z,8.85
2018-11-29T07:51:08.974Z,9.01
2018-11-29T07:53:36.403Z,8.85
2018-11-29T07:56:03.862Z,8.73
2018-11-29T07:58:31.284Z,8.92
2018-11-29T08:00:59.245Z,8.90
2018-11-29T08:03:26.756Z,8.84
2018-11-29T08:05:54.213Z,8.90
2018-11-29T08:08:21.748Z,8.68
2018-11-29T08:10:49.194Z,8.93
2018-11-29T08:13:16.646Z,8.88
2018-11-29T08:15:44.114Z,8.86
2018-11-29T08:18:11.574Z,8.86
2018-11-29T08:20:39.025Z,8.86
2018-11-29T08:23:06.459Z,8.96
2018-11-29T08:25:33.889Z,9.00
2018-11-29T08:28:01.343Z,8.94
2018-11-29T08:30:28.764Z,8.91
2018-11-29T08:32:56.216Z,8.89
2018-11-29T08:35:23.652Z,9.00
2018-11-29T08:37:51.098Z,8.96
2018-11-29T08:40:18.558Z,9.16
2018-11-29T08:42:46.000Z,9.21
2018-11-29T08:45:13.436Z,9.37
2018-11-29T08:47:40.883Z,9.20
2018-11-29T08:50:08.305Z,9.22
2018-11-29T08:52:35.782Z,9.35
2018-11-29T08:55:03.228Z,9.26
2018-11-29T08:57:30.682Z,9.44
2018-11-29T08:59:58.121Z,9.26
2018-11-29T09:02:25.562Z,9.29
2018-11-29T09:04:53.020Z,9.10
2018-11-29T09:07:20.430Z,9.33
2018-11-29T09:09:47.894Z,9.18
2018-11-29T09:12:15.333Z,9.00
2018-11-29T09:14:42.804Z,9.19
2018-11-29T09:17:10.355Z,9.14
2018-11-29T09:19:37.741Z,9.02
2018-11-29T09:22:05.235Z,9.04
2018-11-29T09:24:32.670Z,9.21
2018-11-29T09:27:00.134Z,9.08
2018-11-29T09:29:27.569Z,9.18
2018-11-29T09:31:55.037Z,9.18
2018-11-29T09:34:22.497Z,9.24
2018-11-29T09:36:49.945Z,9.20
2018-11-29T09:39:17.416Z,9.16
2018-11-29T09:41:44.849Z,9.25
2018-11-29T09:44:12.275Z,9.25
2018-11-29T09:46:39.726Z,9.33
2018-11-29T10:06:09.978Z,9.22
2018-11-29T10:08:37.439Z,9.48
2018-11-29T10:11:04.906Z,9.51
2018-11-29T10:13:32.371Z,9.50
2018-11-29T10:15:59.801Z,9.49
2018-11-29T10:18:27.248Z,9.34
2018-11-29T10:20:54.689Z,9.47
2018-11-29T10:23:22.136Z,9.45
2018-11-29T10:25:49.573Z,9.66
2018-11-29T10:28:17.038Z,9.31
2018-11-29T10:30:44.487Z,9.63
2018-11-29T10:33:11.959Z,9.43
2018-11-29T10:35:39.381Z,9.72
2018-11-29T10:38:06.835Z,9.46
2018-11-29T10:40:34.784Z,9.62
2018-11-29T10:43:02.248Z,9.72
2018-11-29T10:45:29.787Z,9.61
2018-11-29T10:47:57.177Z,9.41
2018-11-29T10:50:24.711Z,9.63
2018-11-29T10:52:52.111Z,9.76
2018-11-29T10:55:19.583Z,9.82
2018-11-29T10:57:47.031Z,9.85
2018-11-29T11:00:14.477Z,9.85
2018-11-29T11:02:41.968Z,9.77
2018-11-29T11:05:09.453Z,9.78
2018-11-29T11:07:36.890Z,9.88
2018-11-29T11:10:04.353Z,9.92
2018-11-29T11:12:31.842Z,9.94
2018-11-29T11:14:59.278Z,9.93
2018-11-29T11:17:26.755Z,9.94
2018-11-29T11:19:54.201Z,10.04
2018-11-29T11:22:21.644Z,9.99
2018-11-29T11:24:49.125Z,9.88
2018-11-29T11:27:16.558Z,10.09
2018-11-29T11:29:44.039Z,9.91
2018-11-29T11:32:11.487Z,9.74
2018-11-29T11:34:38.951Z,9.87
2018-11-29T11:37:06.402Z,9.85
2018-11-29T11:39:33.874Z,9.93
2018-11-29T11:42:01.334Z,9.96
2018-11-29T11:44:28.786Z,9.67
2018-11-29T11:46:56.277Z,9.80
2018-11-29T11:49:23.832Z,9.58
2018-11-29T11:51:51.314Z,9.47
2018-11-29T11:54:18.780Z,9.60
2018-11-29T11:56:46.312Z,9.51
2018-11-29T11:59:15.821Z,9.78
2018-11-29T12:01:43.360Z,9.58
2018-11-29T12:04:10.825Z,9.72
2018-11-29T12:06:38.296Z,9.36
2018-11-29T12:09:05.803Z,9.60
2018-11-29T12:11:33.320Z,9.46
2018-11-29T12:14:00.748Z,9.56
2018-11-29T12:16:28.225Z,9.46
2018-11-29T12:19:02.092Z,9.65
2018-11-29T12:21:23.405Z,9.61
2018-11-29T12:23:50.832Z,9.61
2018-11-29T12:26:18.292Z,9.46
2018-11-29T12:28:45.775Z,9.67
2018-11-29T12:31:13.234Z,9.68
2018-11-29T12:33:40.681Z,9.56
2018-11-29T12:36:08.191Z,9.56
2018-11-29T12:38:35.636Z,9.58
2018-11-29T12:41:03.123Z,9.35
2018-11-29T12:43:30.546Z,9.52
2018-11-29T12:45:57.975Z,9.62
2018-11-29T12:48:25.437Z,9.47
2018-11-29T12:50:52.886Z,9.43
2018-11-29T13:10:23.729Z,9.53
2018-11-29T13:12:50.190Z,9.49
2018-11-29T13:15:17.729Z,9.48
2018-11-29T13:17:45.125Z,9.73
2018-11-29T13:20:12.563Z,9.47
2018-11-29T13:22:40.028Z,9.44
2018-11-29T13:25:07.476Z,9.32
2018-11-29T13:27:34.927Z,9.43
2018-11-29T13:30:02.406Z,9.47
2018-11-29T13:32:29.852Z,9.31
2018-11-29T13:34:57.312Z,9.26
2018-11-29T13:37:24.818Z,9.41
2018-11-29T13:39:52.279Z,9.50
2018-11-29T13:42:19.751Z,9.61
2018-11-29T13:44:47.293Z,9.35
2018-11-29T13:47:14.647Z,9.38
2018-11-29T13:49:42.100Z,9.52
2018-11-29T13:52:09.540Z,9.37
2018-11-29T13:54:36.992Z,9.62
2018-11-29T13:57:04.447Z,9.40
2018-11-29T13:59:31.904Z,9.38
2018-11-29T14:01:59.375Z,9.47
2018-11-29T14:04:26.848Z,9.54
2018-11-29T14:06:55.097Z,9.60
2018-11-29T14:09:22.644Z,9.65
2018-11-29T14:11:50.076Z,9.62
2018-11-29T14:14:17.539Z,9.36
2018-11-29T14:16:44.998Z,9.65
2018-11-29T14:19:12.464Z,9.63
2018-11-29T14:21:39.906Z,9.72
2018-11-29T14:24:07.327Z,9.77
2018-11-29T14:26:34.797Z,9.62
2018-11-29T14:29:02.242Z,9.78
2018-11-29T14:31:29.676Z,9.92
2018-11-29T14:33:57.137Z,9.89
2018-11-29T14:36:24.573Z,9.76
2018-11-29T14:38:52.011Z,9.87
2018-11-29T14:41:19.491Z,9.95
2018-11-29T14:43:46.958Z,9.98
2018-11-29T14:46:14.469Z,9.88
2018-11-29T14:48:41.953Z,9.87
2018-11-29T14:51:09.411Z,9.99
2018-11-29T14:53:37.957Z,10.00
2018-11-29T14:56:05.401Z,9.94
2018-11-29T14:58:32.852Z,9.96
2018-11-29T15:01:00.271Z,9.90
2018-11-29T15:03:27.724Z,9.99
2018-11-29T15:05:55.165Z,9.96
2018-11-29T15:08:22.631Z,9.96
2018-11-29T15:10:50.042Z,9.94
2018-11-29T15:13:17.481Z,9.88
2018-11-29T15:15:45.843Z,9.94
2018-11-29T15:18:13.359Z,9.86
2018-11-29T15:20:40.830Z,9.95
2018-11-29T15:23:08.251Z,9.88
2018-11-29T15:25:35.707Z,9.91
2018-11-29T15:28:03.147Z,9.83
2018-11-29T15:30:30.614Z,9.84
2018-11-29T15:32:58.066Z,9.84
2018-11-29T15:35:25.547Z,9.87
2018-11-29T15:37:53.003Z,9.70
2018-11-29T15:40:20.491Z,9.76
2018-11-29T15:42:48.471Z,9.59
2018-11-29T15:45:15.919Z,9.54
2018-11-29T15:47:43.363Z,9.63
2018-11-29T15:50:10.818Z,9.82
2018-11-29T15:52:38.278Z,9.65
2018-11-29T15:55:05.705Z,9.64
2018-11-29T15:57:34.989Z,9.62
2018-11-29T16:00:00.579Z,9.49
2018-11-29T16:02:28.029Z,9.30
2018-11-29T16:04:56.619Z,9.55
2018-11-29T16:07:24.178Z,9.45
2018-11-29T16:09:51.613Z,9.37
2018-11-29T16:12:19.072Z,9.70
2018-11-29T16:14:46.511Z,9.72
2018-11-29T16:17:13.955Z,9.48
2018-11-29T16:19:41.411Z,9.33
2018-11-29T16:22:08.885Z,9.31
2018-11-29T16:24:36.331Z,9.29
2018-11-29T16:27:03.808Z,9.40
2018-11-29T16:29:31.265Z,9.46
2018-11-29T16:31:58.735Z,9.36
2018-11-29T16:34:26.165Z,9.36
2018-11-29T16:36:53.572Z,9.07
2018-11-29T16:39:21.009Z,9.22
2018-11-29T16:41:48.429Z,9.24
2018-11-29T16:44:15.886Z,9.43
2018-11-29T16:46:43.360Z,9.37
2018-11-29T16:49:10.787Z,9.44
2018-11-29T16:51:38.243Z,9.35
2018-11-29T16:56:43.499Z,9.27
2018-11-29T16:59:10.941Z,9.27
2018-11-29T17:01:38.467Z,9.25
2018-11-29T17:04:06.730Z,9.39
2018-11-29T17:06:34.226Z,9.44
2018-11-29T17:09:01.697Z,9.37
2018-11-29T17:11:29.906Z,9.46
2018-11-29T17:13:57.439Z,9.29
2018-11-29T17:16:26.091Z,9.28
2018-11-29T17:18:53.556Z,9.28
2018-11-29T17:21:24.725Z,9.23
2018-11-29T17:23:52.168Z,9.44
2018-11-29T17:26:21.891Z,9.42
2018-11-29T17:28:49.364Z,9.39
2018-11-29T17:31:16.802Z,9.47
2018-11-29T17:33:44.295Z,9.31
2018-11-29T17:36:12.854Z,9.13
2018-11-29T17:38:41.970Z,9.13
2018-11-29T17:41:09.513Z,9.18
2018-11-29T17:43:36.947Z,9.30
2018-11-29T17:46:04.367Z,9.13
2018-11-29T17:48:31.827Z,9.22
2018-11-29T17:51:00.154Z,9.19
2018-11-29T17:53:27.701Z,9.12
2018-11-29T17:55:55.160Z,9.24
2018-11-29T17:58:22.630Z,9.19
2018-11-29T18:00:50.060Z,9.24
2018-11-29T18:03:17.519Z,9.44
2018-11-29T18:05:44.968Z,9.23
2018-11-29T18:08:12.436Z,9.18
2018-11-29T18:10:39.901Z,9.07
2018-11-29T18:13:07.341Z,9.15
2018-11-29T18:15:34.774Z,9.35
2018-11-29T18:18:02.212Z,9.08
2018-11-29T18:20:29.654Z,8.97
2018-11-29T18:22:57.096Z,9.20
2018-11-29T18:25:24.528Z,9.15
2018-11-29T18:27:51.963Z,8.92
2018-11-29T18:30:19.418Z,8.96
2018-11-29T18:32:46.856Z,9.12
2018-11-29T18:35:14.311Z,9.04
2018-11-29T18:37:41.780Z,9.13
2018-11-29T18:40:10.451Z,8.89
2018-11-29T18:42:37.957Z,9.22
2018-11-29T18:45:05.388Z,9.11
2018-11-29T18:47:32.819Z,9.08
2018-11-29T18:50:00.265Z,9.13
2018-11-29T18:52:27.728Z,9.18
2018-11-29T18:54:55.144Z,9.06
2018-11-29T19:14:25.164Z,9.02
2018-11-29T19:16:52.582Z,9.01
2018-11-29T19:19:20.086Z,9.17
2018-11-29T19:21:47.559Z,9.07
2018-11-29T19:24:16.258Z,9.08
2018-11-29T19:26:43.837Z,9.09
2018-11-29T19:29:11.353Z,9.07
2018-11-29T19:31:38.814Z,9.08
2018-11-29T19:34:06.247Z,9.19
2018-11-29T19:36:33.715Z,9.25
2018-11-29T19:39:01.137Z,9.37
2018-11-29T19:41:28.611Z,9.17
2018-11-29T19:43:57.275Z,9.28
2018-11-29T19:46:24.642Z,9.20
2018-11-29T19:48:52.113Z,9.42
2018-11-29T19:51:19.564Z,9.42
2018-11-29T19:53:47.024Z,9.21
2018-11-29T19:56:14.482Z,9.22
2018-11-29T19:58:41.967Z,9.40
2018-11-29T20:01:10.606Z,9.15
2018-11-29T20:03:38.069Z,9.16
2018-11-29T20:06:05.522Z,9.27
2018-11-29T20:08:32.995Z,9.35
2018-11-29T20:11:00.444Z,9.25
2018-11-29T20:13:27.893Z,9.28
2018-11-29T20:15:56.556Z,9.38
2018-11-29T20:18:23.990Z,9.45
2018-11-29T20:20:51.463Z,9.36
2018-11-29T20:23:18.925Z,9.34
2018-11-29T20:25:46.378Z,8.86
2018-11-29T20:28:14.900Z,9.17
2018-11-29T20:30:42.330Z,8.76
2018-11-29T20:33:10.479Z,9.15
2018-11-29T20:35:38.123Z,9.40
2018-11-29T20:38:05.637Z,8.97
2018-11-29T20:40:33.071Z,9.09
2018-11-29T20:43:00.507Z,9.36
2018-11-29T20:45:28.032Z,9.31
2018-11-29T20:47:55.408Z,9.34
2018-11-29T20:50:22.876Z,9.18
2018-11-29T20:52:50.334Z,9.39
2018-11-29T20:55:17.767Z,9.27
2018-11-29T20:57:46.213Z,9.36
2018-11-29T21:00:13.725Z,9.28
2018-11-29T21:02:41.214Z,9.29
2018-11-29T21:05:08.664Z,9.52
2018-11-29T21:07:36.105Z,9.36
2018-11-29T21:10:03.531Z,9.20
2018-11-29T21:12:31.005Z,9.20
2018-11-29T21:14:59.530Z,9.21
2018-11-29T21:17:26.996Z,9.19
2018-11-29T21:19:55.617Z,9.18
2018-11-29T21:22:23.074Z,9.45
2018-11-29T21:24:50.516Z,9.57
2018-11-29T21:27:21.720Z,9.63
2018-11-29T21:29:49.182Z,9.52
2018-11-29T21:32:16.656Z,9.52
2018-11-29T21:34:44.099Z,9.49
2018-11-29T21:37:11.532Z,9.28
2018-11-29T21:39:39.422Z,9.51
2018-11-29T21:42:06.901Z,9.38
2018-11-29T21:44:34.361Z,9.52
2018-11-29T21:47:01.861Z,9.56
2018-11-29T21:49:29.330Z,9.60
2018-11-29T21:51:56.766Z,9.44
2018-11-29T21:54:24.220Z,9.59
2018-11-29T21:56:51.727Z,9.53
2018-11-29T21:59:19.212Z,9.57
2018-11-29T22:01:46.693Z,9.63
2018-11-29T22:04:14.129Z,9.61
2018-11-29T22:06:41.562Z,9.32
2018-11-29T22:09:09.002Z,9.35
2018-11-29T22:11:36.769Z,9.28
2018-11-29T22:14:04.236Z,9.29
2018-11-29T22:16:31.685Z,9.12
2018-11-29T22:18:59.156Z,9.45
2018-11-29T22:21:26.624Z,9.45
2018-11-29T22:23:54.079Z,9.57
2018-11-29T22:26:21.519Z,9.81
2018-11-29T22:28:48.962Z,9.47
2018-11-29T22:31:16.412Z,9.50
2018-11-29T22:33:43.876Z,9.71
2018-11-29T22:36:11.396Z,9.49
2018-11-29T22:38:38.820Z,9.59
2018-11-29T22:41:06.269Z,9.66
2018-11-29T22:43:33.703Z,9.61
2018-11-29T22:46:01.164Z,9.62
2018-11-29T22:48:28.586Z,9.66
2018-11-29T22:50:56.031Z,9.74
2018-11-29T22:53:23.476Z,9.80
2018-11-29T22:55:50.942Z,9.84
2018-11-29T22:58:18.394Z,9.91
2018-11-29T23:00:45.806Z,9.85
2018-11-29T23:03:13.281Z,9.91
2018-11-29T23:05:40.752Z,9.80
2018-11-29T23:08:08.194Z,10.03
2018-11-29T23:10:35.653Z,9.81
2018-11-29T23:13:04.010Z,9.92
2018-11-29T23:15:31.588Z,10.05
2018-11-29T23:18:00.121Z,9.80
2018-11-29T23:20:27.599Z,9.91
2018-11-29T23:22:55.043Z,10.07
2018-11-29T23:25:22.537Z,10.11
2018-11-29T23:27:50.896Z,9.97
2018-11-29T23:30:18.381Z,9.94
2018-11-29T23:32:45.845Z,10.03
2018-11-29T23:35:13.312Z,9.88
2018-11-29T23:37:41.913Z,9.86
2018-11-29T23:40:09.356Z,9.89
2018-11-29T23:42:36.844Z,9.96
2018-11-29T23:45:04.263Z,9.85
2018-11-29T23:47:31.706Z,10.09
2018-11-29T23:49:59.122Z,10.06
2018-11-29T23:52:26.883Z,10.02
2018-11-29T23:54:54.464Z,9.93
2018-11-29T23:57:22.975Z,10.09
2018-11-29T23:59:50.461Z,10.13
